Latest Weather Observations for Hillarys Point Boat Harbour

IDW60901

Issued at 6:15 pm WST Thursday 23 October 2014 (issued every 10 minutes, with the page automatically refreshed every 10 minutes)

About weather observations | Map of Perth area stations | Latest observations for Perth area | Other Formats
Station Details ID: 009265 Name: HILLARYS BOAT HARBOUR NTC AWS Lat: -31.83 Lon: 115.74 Height: 0.0 m
Data from the previous 72 hours. | See also: Recent months for locations in Western Australia
Date/Time
WST
Tmp

°C
App
Tmp
°C
Dew
Point
°C
Rel
Hum
%
Delta-T

°C
Wind Press
QNH
hPa
Press
MSL
hPa
Rain
since
9 am
mm
Dir
 
Spd
km/h
Gust
km/h
Spd
kts
Gust
kts
23/06:00pm 19.0 - - - - SSW 9 22 5 12 1016.7 1016.7 -
23/05:30pm 19.2 - - - - SSW 11 22 6 12 1016.4 1016.4 -
23/05:00pm 19.4 - - - - SSW 11 20 6 11 1016.3 1016.3 -
23/04:30pm 19.2 - - - - SSW 13 22 7 12 1016.1 1016.1 -
23/04:00pm 19.4 - - - - SSW 11 20 6 11 1016.0 1016.0 -
23/03:30pm 19.5 - - - - SSW 11 20 6 11 1015.9 1015.9 -
23/03:00pm 19.8 - - - - SW 15 22 8 12 1015.9 1015.9 -
23/02:30pm 19.6 - - - - SW 17 24 9 13 1016.0 1016.0 -
23/02:00pm 19.9 - - - - SW 15 24 8 13 1016.0 1016.0 -
23/01:30pm 19.5 - - - - WSW 19 26 10 14 1016.0 1016.0 -
23/01:00pm 19.5 - - - - SW 19 24 10 13 1016.0 1016.0 -
23/12:30pm 19.6 - - - - WSW 17 24 9 13 1016.0 1016.0 -
23/12:00pm 19.4 - - - - WSW 17 24 9 13 1016.0 1016.0 -
23/11:30am 19.6 - - - - WSW 13 19 7 10 1016.0 1016.0 -
23/11:00am 19.6 - - - - WSW 15 24 8 13 1016.1 1016.1 -
23/10:30am 19.4 - - - - W 15 24 8 13 1016.1 1016.1 -
23/10:00am 19.4 - - - - W 15 24 8 13 1016.0 1016.0 -
23/09:30am 19.3 - - - - W 15 22 8 12 1015.8 1015.8 -
23/09:00am 19.3 - - - - W 15 22 8 12 1015.5 1015.5 -
23/08:30am 19.2 - - - - WSW 15 24 8 13 1015.2 1015.2 -
23/08:00am 19.0 - - - - WSW 17 26 9 14 1015.0 1015.0 -
23/07:30am 19.1 - - - - WSW 17 24 9 13 1014.7 1014.7 -
23/07:00am 19.0 - - - - W 17 28 9 15 1014.4 1014.4 -
23/06:30am 18.9 - - - - W 17 26 9 14 1014.1 1014.1 -
23/06:00am 18.8 - - - - W 17 26 9 14 1013.7 1013.7 -
23/05:30am 18.8 - - - - W 17 26 9 14 1013.3 1013.3 -
23/05:00am 18.8 - - - - W 15 22 8 12 1013.0 1013.0 -
23/04:30am 18.8 - - - - W 15 24 8 13 1012.7 1012.7 -
23/04:00am 18.6 - - - - W 17 26 9 14 1012.9 1012.9 -
23/03:30am 18.5 - - - - W 19 30 10 16 1013.2 1013.2 -
23/03:00am 18.9 - - - - WNW 17 26 9 14 1013.4 1013.4 -
23/02:30am 18.9 - - - - WNW 19 30 10 16 1013.5 1013.5 -
23/02:00am 17.1 - - - - N 7 13 4 7 1013.5 1013.5 -
23/01:30am 16.4 - - - - N 9 15 5 8 1013.5 1013.5 -
23/01:00am 16.0 - - - - N 9 15 5 8 1013.5 1013.5 -
23/12:30am 16.1 - - - - NNE 6 9 3 5 1013.7 1013.7 -
23/12:00am 16.3 - - - - N 9 13 5 7 1014.3 1014.3 -
 
Date/Time
WST
Tmp

°C
App
Tmp
°C
Dew
Point
°C
Rel
Hum
%
Delta-T

°C
Wind Press
QNH
hPa
Press
MSL
hPa
Rain
since
9 am
mm
Dir
 
Spd
km/h
Gust
km/h
Spd
kts
Gust
kts
22/11:30pm 16.4 - - - - N 7 13 4 7 1014.5 1014.5 -
22/11:00pm 16.6 - - - - NNE 6 7 3 4 1014.4 1014.4 -
22/10:30pm 17.3 - - - - N 6 11 3 6 1014.2 1014.2 -
22/10:00pm 17.7 - - - - NW 7 11 4 6 1014.0 1014.0 -
22/09:30pm 17.4 - - - - W 13 20 7 11 1013.9 1013.9 -
22/09:00pm 18.7 - - - - NNW 19 35 10 19 1014.8 1014.8 -
22/08:30pm 19.6 - - - - NW 15 28 8 15 1014.3 1014.3 -
22/08:00pm 19.3 - - - - WNW 15 28 8 15 1013.9 1013.9 -
22/07:30pm 19.4 - - - - NW 13 22 7 12 1013.6 1013.6 -
22/07:00pm 19.4 - - - - WNW 15 26 8 14 1013.5 1013.5 -
22/06:30pm 19.5 - - - - WNW 19 28 10 15 1013.3 1013.3 -
22/06:00pm 19.7 - - - - WNW 20 35 11 19 1013.1 1013.1 -
22/05:30pm 19.8 - - - - WNW 19 32 10 17 1013.0 1013.0 -
22/05:00pm 20.1 - - - - WNW 19 33 10 18 1012.8 1012.8 -
22/04:30pm 20.2 - - - - WNW 19 33 10 18 1012.4 1012.4 -
22/04:00pm 20.5 - - - - WNW 17 30 9 16 1012.0 1012.0 -
22/03:30pm 20.4 - - - - WNW 20 37 11 20 1012.0 1012.0 -
22/03:00pm 20.6 - - - - WNW 20 35 11 19 1011.9 1011.9 -
22/02:30pm 20.6 - - - - NW 24 41 13 22 1011.6 1011.6 -
22/02:00pm 21.1 - - - - NW 20 37 11 20 1011.5 1011.5 -
22/01:30pm 21.2 - - - - NW 17 30 9 16 1011.3 1011.3 -
22/01:00pm 21.7 - - - - NW 13 24 7 13 1011.4 1011.4 -
22/12:30pm 22.4 - - - - WNW 15 24 8 13 1011.3 1011.3 -
22/12:00pm 26.3 - - - - NNW 15 28 8 15 1010.8 1010.8 -
22/11:30am 29.5 - - - - N 19 30 10 16 1011.1 1011.1 -
22/11:00am 28.3 - - - - NNE 17 30 9 16 1011.4 1011.4 -
22/10:30am 27.3 - - - - NE 19 32 10 17 1012.0 1012.0 -
22/10:00am 26.3 - - - - NE 19 30 10 16 1012.7 1012.7 -
22/09:30am 21.3 - - - - WNW 9 15 5 8 1013.6 1013.6 -
22/09:00am 23.9 - - - - NNE 15 28 8 15 1013.8 1013.8 -
22/08:30am 23.2 - - - - NNE 17 33 9 18 1014.0 1014.0 -
22/08:00am 21.8 - - - - ENE 22 39 12 21 1013.2 1013.2 -
22/07:30am 20.6 - - - - ENE 28 44 15 24 1012.3 1012.3 -
22/07:00am 20.1 - - - - ENE 28 44 15 24 1012.5 1012.5 -
22/06:30am 19.6 - - - - ENE 20 30 11 16 1012.6 1012.6 -
22/06:00am 19.3 - - - - ENE 20 30 11 16 1012.4 1012.4 -
22/05:30am 18.9 - - - - ENE 20 33 11 18 1012.4 1012.4 -
22/05:00am 18.8 - - - - ENE 20 32 11 17 1012.4 1012.4 -
22/04:30am 18.9 - - - - ENE 22 35 12 19 1012.5 1012.5 -
22/04:00am 19.1 - - - - ENE 22 35 12 19 1012.8 1012.8 -
22/03:30am 19.1 - - - - E 19 33 10 18 1013.1 1013.1 -
22/03:00am 19.1 - - - - E 13 22 7 12 1013.4 1013.4 -
22/02:30am 19.3 - - - - E 11 19 6 10 1013.7 1013.7 -
22/02:00am 19.3 - - - - E 9 19 5 10 1014.2 1014.2 -
22/01:30am 19.4 - - - - E 11 19 6 10 1014.5 1014.5 -
22/01:00am 19.7 - - - - E 11 20 6 11 1014.9 1014.9 -
22/12:30am 20.1 - - - - E 11 24 6 13 1015.4 1015.4 -
22/12:00am 18.4 - - - - E 7 13 4 7 1015.7 1015.7 -
 
Date/Time
WST
Tmp

°C
App
Tmp
°C
Dew
Point
°C
Rel
Hum
%
Delta-T

°C
Wind Press
QNH
hPa
Press
MSL
hPa
Rain
since
9 am
mm
Dir
 
Spd
km/h
Gust
km/h
Spd
kts
Gust
kts
21/11:30pm 18.1 - - - - E 6 13 3 7 1016.2 1016.2 -
21/11:00pm 17.8 - - - - ESE 2 6 1 3 1016.4 1016.4 -
21/10:30pm 18.0 - - - - E 4 9 2 5 1016.6 1016.6 -
21/10:00pm 18.5 - - - - SE 2 7 1 4 1017.3 1017.3 -
21/09:30pm 18.8 - - - - SE 2 9 1 5 1017.9 1017.9 -
21/09:00pm 19.1 - - - - S 6 15 3 8 1018.3 1018.3 -
21/08:30pm 19.1 - - - - S 4 9 2 5 1018.7 1018.7 -
21/08:00pm 18.9 - - - - SSE 7 13 4 7 1018.7 1018.7 -
21/07:30pm 19.1 - - - - S 6 15 3 8 1018.9 1018.9 -
21/07:00pm 18.8 - - - - S 6 13 3 7 1018.8 1018.8 -
21/06:30pm 18.7 - - - - S 6 15 3 8 1018.7 1018.7 -
21/06:00pm 19.0 - - - - SSW 6 17 3 9 1018.6 1018.6 -
21/05:30pm 19.0 - - - - SSW 7 17 4 9 1018.6 1018.6 -
21/05:00pm 19.3 - - - - SSW 6 15 3 8 1018.7 1018.7 -
21/04:30pm 19.4 - - - - SSW 7 19 4 10 1018.8 1018.8 -
21/04:00pm 19.1 - - - - SSW 11 20 6 11 1018.9 1018.9 -
21/03:30pm 19.2 - - - - SSW 11 22 6 12 1019.0 1019.0 -
21/03:00pm 19.2 - - - - SSW 9 20 5 11 1019.3 1019.3 -
21/02:30pm 18.9 - - - - SSW 11 22 6 12 1019.5 1019.5 -
21/02:00pm 19.1 - - - - SSW 9 20 5 11 1019.8 1019.8 -
21/01:30pm 19.0 - - - - SSW 13 24 7 13 1020.2 1020.2 -
21/01:00pm 19.0 - - - - SSW 13 24 7 13 1020.6 1020.6 -
21/12:30pm 18.7 - - - - SW 13 22 7 12 1020.7 1020.7 -
21/12:00pm 18.3 - - - - SSW 13 22 7 12 1020.6 1020.6 -
21/11:30am 18.2 - - - - SSW 11 24 6 13 1020.8 1020.8 -
21/11:00am 20.3 - - - - SE 4 11 2 6 1021.1 1021.1 -
21/10:30am 19.4 - - - - E 6 13 3 7 1021.5 1021.5 -
21/10:00am 18.3 - - - - ESE 6 13 3 7 1021.8 1021.8 -
21/09:30am 18.0 - - - - SE 6 13 3 7 1022.1 1022.1 -
21/09:00am 18.1 - - - - ESE 4 11 2 6 1022.0 1022.0 -
21/08:30am 16.8 - - - - E 9 17 5 9 1022.1 1022.1 -
21/08:00am 16.0 - - - - ENE 11 17 6 9 1022.0 1022.0 -
21/07:30am 15.1 - - - - ENE 9 17 5 9 1021.8 1021.8 -
21/07:00am 13.8 - - - - ENE 7 13 4 7 1021.5 1021.5 -
21/06:30am 12.6 - - - - ENE 7 13 4 7 1021.3 1021.3 -
21/06:00am 11.8 - - - - ENE 9 13 5 7 1021.1 1021.1 -
21/05:30am 12.0 - - - - ENE 7 13 4 7 1020.8 1020.8 -
21/05:00am 12.7 - - - - ENE 6 9 3 5 1020.7 1020.7 -
21/04:30am 12.7 - - - - ENE 7 13 4 7 1020.4 1020.4 -
21/04:00am 12.7 - - - - ENE 9 13 5 7 1020.0 1020.0 -
21/03:30am 12.8 - - - - ENE 7 11 4 6 1019.8 1019.8 -
21/03:00am 13.2 - - - - ENE 7 11 4 6 1019.6 1019.6 -
21/02:30am 13.6 - - - - ENE 6 9 3 5 1019.7 1019.7 -
21/02:00am 13.8 - - - - ENE 6 9 3 5 1019.7 1019.7 -
21/01:30am 13.8 - - - - ENE 4 6 2 3 1019.8 1019.8 -
21/01:00am 14.7 - - - - ENE 2 6 1 3 1019.7 1019.7 -
21/12:30am 14.5 - - - - ENE 4 6 2 3 1019.8 1019.8 -
21/12:00am 14.8 - - - - ENE 6 9 3 5 1020.1 1020.1 -
 
Date/Time
WST
Tmp

°C
App
Tmp
°C
Dew
Point
°C
Rel
Hum
%
Delta-T

°C
Wind Press
QNH
hPa
Press
MSL
hPa
Rain
since
9 am
mm
Dir
 
Spd
km/h
Gust
km/h
Spd
kts
Gust
kts
20/11:30pm 16.1 - - - - ESE 2 4 1 2 1020.0 1020.0 -
20/11:00pm 16.8 - - - - SSE 6 11 3 6 1020.3 1020.3 -
20/10:30pm 17.0 - - - - SSW 6 13 3 7 1020.2 1020.2 -
20/10:00pm 17.2 - - - - SSW 7 17 4 9 1020.3 1020.3 -
20/09:30pm 17.3 - - - - SSW 7 15 4 8 1020.4 1020.4 -
20/09:00pm 17.4 - - - - SSW 7 17 4 9 1020.4 1020.4 -
20/08:30pm 17.5 - - - - SSW 6 15 3 8 1020.3 1020.3 -
20/08:00pm 17.6 - - - - SSW 7 17 4 9 1020.2 1020.2 -
20/07:30pm 17.6 - - - - SSW 7 15 4 8 1020.0 1020.0 -
20/07:00pm 17.8 - - - - SSW 11 20 6 11 1019.9 1019.9 -
20/06:30pm 18.1 - - - - SSW 9 19 5 10 1019.6 1019.6 -

Latest Capital City Observations: Canberra | Sydney | Melbourne | Brisbane | Adelaide | Perth | Hobart | Darwin

Other Formats:

Comma delimited format used in spreadsheet applications
http://www.bom.gov.au/fwo/IDW60901/IDW60901.95605.axf

JavaScript Object Notation format (JSON) in row-major order
http://www.bom.gov.au/fwo/IDW60901/IDW60901.95605.json